createdAt,value
2023-10-05T00:01:38.365Z,31.17
2023-10-05T00:04:05.419Z,27.42
2023-10-05T00:06:32.294Z,29.27
2023-10-05T00:08:59.168Z,26.60
2023-10-05T00:11:27.439Z,27.08
2023-10-05T00:13:56.690Z,28.73
2023-10-05T00:16:23.906Z,27.83
2023-10-05T00:18:52.201Z,24.38
2023-10-05T00:21:20.592Z,23.45
2023-10-05T00:23:48.407Z,21.15
2023-10-05T00:26:15.234Z,19.90
2023-10-05T00:28:42.095Z,19.40
2023-10-05T00:31:09.092Z,17.42
2023-10-05T00:33:35.964Z,19.65
2023-10-05T00:36:02.808Z,22.30
2023-10-05T00:38:29.801Z,18.30
2023-10-05T00:40:56.649Z,21.65
2023-10-05T00:43:23.530Z,23.08
2023-10-05T00:45:51.247Z,22.30
2023-10-05T00:48:19.368Z,19.67
2023-10-05T00:50:46.367Z,19.20
2023-10-05T00:53:13.759Z,21.27
2023-10-05T00:55:43.139Z,19.63
2023-10-05T00:58:10.119Z,18.23
2023-10-05T01:00:37.062Z,15.70
2023-10-05T01:03:04.162Z,17.27
2023-10-05T01:05:31.187Z,16.17
2023-10-05T01:07:58.641Z,23.13
2023-10-05T01:10:25.900Z,23.05
2023-10-05T01:12:52.804Z,19.83
2023-10-05T01:15:21.335Z,19.87
2023-10-05T01:17:49.024Z,17.95
2023-10-05T01:20:17.284Z,18.40
2023-10-05T01:22:44.211Z,18.75
2023-10-05T01:25:12.281Z,18.63
2023-10-05T01:27:39.306Z,20.97
2023-10-05T01:30:06.764Z,27.88
2023-10-05T01:32:33.687Z,26.73
2023-10-05T01:35:04.224Z,28.17
2023-10-05T01:37:32.961Z,26.20
2023-10-05T01:39:59.913Z,27.93
2023-10-05T01:42:26.907Z,24.35
2023-10-05T01:44:53.760Z,28.73
2023-10-05T01:47:20.591Z,25.33
2023-10-05T01:49:47.841Z,26.10
2023-10-05T01:52:14.737Z,30.07
2023-10-05T01:54:41.620Z,24.58
2023-10-05T01:57:08.394Z,26.95
2023-10-05T01:59:36.011Z,27.15
2023-10-05T02:02:03.055Z,24.00
2023-10-05T02:04:30.047Z,26.23
2023-10-05T02:06:56.933Z,26.45
2023-10-05T02:09:23.858Z,28.27
2023-10-05T02:11:50.736Z,25.80
2023-10-05T02:14:17.807Z,20.92
2023-10-05T02:16:45.165Z,26.10
2023-10-05T02:19:12.142Z,23.55
2023-10-05T02:21:39.208Z,28.27
2023-10-05T02:24:08.049Z,28.90
2023-10-05T02:26:34.969Z,24.23
2023-10-05T02:29:03.142Z,23.83
2023-10-05T02:31:30.247Z,24.45
2023-10-05T02:33:57.444Z,26.67
2023-10-05T02:36:24.383Z,27.98
2023-10-05T02:38:51.226Z,29.38
2023-10-05T02:41:18.411Z,28.30
2023-10-05T02:43:46.301Z,24.50
2023-10-05T02:49:35.149Z,21.27
2023-10-05T02:52:02.003Z,26.13
2023-10-05T02:54:28.945Z,23.60
2023-10-05T02:56:55.918Z,23.83
2023-10-05T02:59:26.965Z,23.33
2023-10-05T03:01:54.010Z,20.38
2023-10-05T03:04:21.412Z,21.58
2023-10-05T03:06:48.805Z,22.40
2023-10-05T03:09:15.925Z,21.73
2023-10-05T03:11:44.009Z,23.80
2023-10-05T03:14:11.165Z,21.98
2023-10-05T03:16:39.190Z,21.15
2023-10-05T03:19:06.523Z,20.53
2023-10-05T03:21:33.478Z,18.98
2023-10-05T03:24:00.345Z,17.20
2023-10-05T03:26:27.320Z,18.35
2023-10-05T03:28:54.184Z,19.00
2023-10-05T03:31:21.153Z,22.03
2023-10-05T03:33:48.100Z,20.55
2023-10-05T03:36:15.269Z,21.95
2023-10-05T03:38:45.310Z,23.33
2023-10-05T03:41:12.187Z,19.55
2023-10-05T03:43:39.078Z,22.30
2023-10-05T03:46:06.695Z,24.02
2023-10-05T04:09:34.436Z,24.97
2023-10-05T04:12:01.536Z,25.13
2023-10-05T04:14:28.349Z,22.55
2023-10-05T04:16:55.301Z,19.52
2023-10-05T04:19:22.248Z,25.45
2023-10-05T04:21:49.235Z,21.63
2023-10-05T04:24:16.740Z,22.33
2023-10-05T04:26:43.930Z,27.75
2023-10-05T04:29:10.769Z,24.75
2023-10-05T04:31:37.837Z,26.38
2023-10-05T04:34:05.627Z,24.13
2023-10-05T04:36:33.170Z,23.80
2023-10-05T04:39:00.319Z,25.20
2023-10-05T04:41:29.580Z,23.75
2023-10-05T04:43:57.101Z,24.83
2023-10-05T04:46:24.841Z,24.03
2023-10-05T04:48:52.289Z,23.50
2023-10-05T04:51:19.233Z,24.80
2023-10-05T04:53:46.196Z,28.60
2023-10-05T04:56:13.101Z,25.98
2023-10-05T04:58:40.090Z,28.80
2023-10-05T05:01:07.146Z,22.85
2023-10-05T05:03:34.221Z,26.40
2023-10-05T05:06:01.251Z,26.85
2023-10-05T05:08:28.421Z,26.73
2023-10-05T05:10:55.217Z,26.00
2023-10-05T05:13:22.162Z,26.27
2023-10-05T05:15:49.233Z,26.30
2023-10-05T05:18:16.396Z,24.40
2023-10-05T05:20:43.830Z,24.80
2023-10-05T05:23:10.756Z,27.13
2023-10-05T05:25:37.737Z,24.40
2023-10-05T05:28:05.776Z,25.85
2023-10-05T05:30:36.309Z,27.38
2023-10-05T05:33:04.267Z,29.98
2023-10-05T05:35:31.224Z,24.43
2023-10-05T05:37:58.170Z,26.58
2023-10-05T05:40:25.055Z,28.33
2023-10-05T05:42:51.964Z,31.10
2023-10-05T05:45:18.953Z,27.88
2023-10-05T05:47:46.135Z,29.50
2023-10-05T05:50:13.886Z,27.85
2023-10-05T05:52:40.895Z,25.95
2023-10-05T05:55:08.017Z,26.00
2023-10-05T05:57:34.946Z,30.50
2023-10-05T06:00:01.895Z,30.63
2023-10-05T06:02:28.855Z,30.20
2023-10-05T06:04:55.918Z,34.55
2023-10-05T06:07:22.977Z,31.13
2023-10-05T06:09:49.920Z,34.47
2023-10-05T06:12:16.839Z,27.77
2023-10-05T06:14:44.288Z,33.35
2023-10-05T06:17:11.876Z,33.08
2023-10-05T06:19:39.254Z,30.83
2023-10-05T06:22:06.294Z,33.00
2023-10-05T06:24:33.533Z,34.33
2023-10-05T06:27:00.461Z,35.42
2023-10-05T06:29:27.689Z,35.00
2023-10-05T06:31:54.848Z,36.67
2023-10-05T06:34:21.751Z,34.05
2023-10-05T06:36:48.802Z,31.17
2023-10-05T06:39:24.708Z,29.85
2023-10-05T06:41:54.677Z,30.83
2023-10-05T06:44:21.619Z,24.77
2023-10-05T06:46:48.528Z,29.67
2023-10-05T07:34:15.065Z,21.25
2023-10-05T07:36:42.034Z,21.23
2023-10-05T07:39:08.839Z,26.02
2023-10-05T07:41:35.771Z,22.80
2023-10-05T07:44:08.026Z,22.92
2023-10-05T07:46:35.665Z,26.15
2023-10-05T07:49:05.750Z,25.30
2023-10-05T07:51:32.611Z,22.15
2023-10-05T07:53:59.498Z,24.90
2023-10-05T07:56:26.525Z,24.25
2023-10-05T07:58:53.386Z,25.92
2023-10-05T08:01:20.306Z,21.65
2023-10-05T08:03:47.291Z,24.45
2023-10-05T08:06:14.318Z,21.97
2023-10-05T08:08:41.216Z,26.27
2023-10-05T08:11:08.559Z,24.25
2023-10-05T08:13:35.393Z,25.15
2023-10-05T08:16:02.434Z,24.88
2023-10-05T08:18:29.364Z,23.40
2023-10-05T08:20:56.346Z,24.45
2023-10-05T08:23:29.606Z,20.92
2023-10-05T08:25:56.520Z,19.92
2023-10-05T08:28:23.387Z,23.40
2023-10-05T08:30:50.311Z,19.67
2023-10-05T08:33:17.263Z,20.00
2023-10-05T08:35:44.207Z,20.88
2023-10-05T08:38:11.379Z,23.42
2023-10-05T08:40:38.346Z,21.27
2023-10-05T08:43:07.123Z,22.70
2023-10-05T08:45:55.356Z,21.33
2023-10-05T08:48:24.860Z,21.17
2023-10-05T08:50:55.802Z,20.23
2023-10-05T08:53:23.475Z,16.67
2023-10-05T08:55:51.066Z,17.03
2023-10-05T08:58:19.465Z,18.23
2023-10-05T09:00:49.590Z,16.65
2023-10-05T09:03:16.514Z,15.82
2023-10-05T09:06:06.952Z,18.92
2023-10-05T09:08:54.743Z,16.13
2023-10-05T09:11:31.591Z,16.45
2023-10-05T09:14:02.632Z,16.95
2023-10-05T09:16:29.703Z,14.63
2023-10-05T09:18:56.557Z,14.98
2023-10-05T09:21:23.465Z,15.93
2023-10-05T09:23:50.334Z,15.02
2023-10-05T09:26:24.612Z,15.88
2023-10-05T09:28:51.406Z,20.27
2023-10-05T09:31:19.605Z,18.17
2023-10-05T09:33:51.011Z,19.03
2023-10-05T09:36:18.326Z,20.23
2023-10-05T09:38:45.689Z,17.10
2023-10-05T09:41:16.266Z,20.40
2023-10-05T09:43:44.586Z,19.30
2023-10-05T09:46:13.220Z,14.70
2023-10-05T09:48:40.947Z,19.10
2023-10-05T09:51:11.014Z,20.58
2023-10-05T09:53:39.042Z,19.38
2023-10-05T09:56:06.158Z,17.02
2023-10-05T09:58:34.063Z,20.83
2023-10-05T10:01:01.290Z,19.90
2023-10-05T10:03:28.691Z,18.38
2023-10-05T10:06:01.270Z,18.90
2023-10-05T10:08:32.630Z,18.92
2023-10-05T10:11:02.574Z,16.97
2023-10-05T10:13:31.009Z,21.30
2023-10-05T10:15:58.018Z,22.17
2023-10-05T10:18:27.830Z,18.55
2023-10-05T10:20:54.821Z,20.27
2023-10-05T10:23:23.022Z,21.10
2023-10-05T10:25:50.298Z,22.33
2023-10-05T10:28:20.075Z,19.73
2023-10-05T10:31:19.232Z,19.23
2023-10-05T10:33:47.407Z,20.85
2023-10-05T10:36:15.142Z,17.70
2023-10-05T10:38:42.142Z,18.58
2023-10-05T10:41:10.985Z,18.25
2023-10-05T10:43:37.946Z,18.80
2023-10-05T10:46:05.416Z,17.55
2023-10-05T10:48:32.256Z,18.80
2023-10-05T10:50:59.860Z,17.05
2023-10-05T10:53:28.620Z,18.83
2023-10-05T10:55:58.524Z,20.00
2023-10-05T10:58:25.873Z,17.80
2023-10-05T11:01:00.598Z,19.77
2023-10-05T11:03:27.657Z,18.90
2023-10-05T11:05:55.225Z,19.70
2023-10-05T11:08:22.513Z,19.67
2023-10-05T11:11:10.813Z,19.33
2023-10-05T11:13:41.610Z,20.53
2023-10-05T11:16:08.558Z,18.23
2023-10-05T11:18:35.581Z,19.95
2023-10-05T11:21:13.049Z,20.00
2023-10-05T11:23:47.360Z,19.75
2023-10-05T11:26:15.598Z,20.60
2023-10-05T11:28:42.610Z,19.10
2023-10-05T11:31:17.201Z,19.02
2023-10-05T11:34:27.563Z,20.60
2023-10-05T11:36:42.234Z,18.92
2023-10-05T11:39:12.185Z,19.47
2023-10-05T11:41:39.479Z,19.38
2023-10-05T11:44:06.563Z,18.85
2023-10-05T11:46:43.902Z,18.05
2023-10-05T11:49:11.543Z,19.02
2023-10-05T11:51:38.386Z,28.13
2023-10-05T11:54:05.548Z,19.88
2023-10-05T11:56:32.548Z,20.80
2023-10-05T11:59:00.258Z,21.17
2023-10-05T12:01:28.414Z,22.15
2023-10-05T12:03:55.688Z,16.40
2023-10-05T12:06:23.222Z,19.95
2023-10-05T12:08:51.397Z,19.95
2023-10-05T12:11:18.380Z,21.15
2023-10-05T12:13:45.348Z,22.10
2023-10-05T12:16:12.626Z,20.30
2023-10-05T12:18:40.359Z,19.02
2023-10-05T12:21:07.181Z,17.35
2023-10-05T12:23:34.041Z,18.83
2023-10-05T12:26:00.843Z,22.52
2023-10-05T12:28:27.695Z,19.33
2023-10-05T12:30:54.637Z,19.33
2023-10-05T12:33:21.573Z,19.45
2023-10-05T12:35:51.775Z,18.13
2023-10-05T12:38:19.754Z,25.10
2023-10-05T12:40:47.418Z,20.13
2023-10-05T12:43:17.780Z,24.85
2023-10-05T12:45:45.459Z,21.27
2023-10-05T12:48:12.388Z,20.77
2023-10-05T12:50:39.391Z,20.73
2023-10-05T12:53:06.514Z,20.07
2023-10-05T12:55:33.401Z,19.20
2023-10-05T12:58:00.692Z,21.40
2023-10-05T13:00:28.354Z,23.13
2023-10-05T13:02:56.086Z,23.80
2023-10-05T13:05:30.322Z,21.27
2023-10-05T13:07:59.894Z,19.33
2023-10-05T13:10:26.856Z,19.60
2023-10-05T13:12:55.077Z,21.73
2023-10-05T13:15:22.929Z,23.67
2023-10-05T13:17:49.820Z,23.43
2023-10-05T13:20:16.851Z,22.08
2023-10-05T13:22:43.939Z,19.83
2023-10-05T13:25:11.158Z,19.92
2023-10-05T13:27:38.312Z,20.15
2023-10-05T13:30:05.675Z,19.70
2023-10-05T13:32:32.919Z,17.45
2023-10-05T13:35:01.520Z,19.42
2023-10-05T13:37:29.625Z,20.58
2023-10-05T13:39:56.636Z,22.73
2023-10-05T13:42:23.508Z,22.10
2023-10-05T13:44:50.395Z,22.30
2023-10-05T13:47:17.365Z,21.33
2023-10-05T13:49:44.473Z,20.30
2023-10-05T13:52:11.500Z,23.50
2023-10-05T13:54:38.410Z,21.07
2023-10-05T13:57:05.334Z,19.70
2023-10-05T13:59:32.323Z,23.17
2023-10-05T14:01:59.243Z,19.70
2023-10-05T14:04:26.211Z,15.15
2023-10-05T14:06:53.100Z,17.97
2023-10-05T14:09:21.024Z,21.90
2023-10-05T14:11:47.930Z,22.63
2023-10-05T14:14:14.883Z,21.58
2023-10-05T14:16:41.866Z,21.27
2023-10-05T14:19:09.015Z,25.93
2023-10-05T14:21:36.170Z,22.25
2023-10-05T14:24:03.081Z,23.00
2023-10-05T14:26:30.018Z,25.55
2023-10-05T14:28:57.170Z,23.08
2023-10-05T14:31:24.057Z,20.03
2023-10-05T14:33:51.296Z,19.77
2023-10-05T14:36:18.805Z,25.80
2023-10-05T14:38:45.672Z,24.40
2023-10-05T14:41:12.546Z,25.67
2023-10-05T14:43:39.592Z,24.83
2023-10-05T14:46:06.628Z,26.30
2023-10-05T14:48:33.738Z,25.55
2023-10-05T14:51:02.126Z,28.27
2023-10-05T14:53:29.256Z,21.27
2023-10-05T14:55:56.257Z,31.23
2023-10-05T14:58:23.825Z,31.02
2023-10-05T15:00:50.802Z,27.85
2023-10-05T15:03:17.754Z,23.90
2023-10-05T15:05:44.737Z,21.38
2023-10-05T15:08:15.419Z,24.93
2023-10-05T15:10:45.072Z,22.38
2023-10-05T15:13:11.930Z,24.00
2023-10-05T15:15:38.781Z,22.33
2023-10-05T15:18:05.963Z,23.48
2023-10-05T15:20:32.803Z,16.93
2023-10-05T15:22:59.754Z,16.38
2023-10-05T15:25:26.999Z,23.75
2023-10-05T15:27:53.974Z,24.40
2023-10-05T15:30:20.882Z,20.42
2023-10-05T15:32:48.946Z,23.23
2023-10-05T15:35:17.526Z,15.82
2023-10-05T15:37:46.768Z,22.90
2023-10-05T15:40:14.895Z,18.02
2023-10-05T15:42:47.254Z,18.60
2023-10-05T15:45:16.872Z,22.73
2023-10-05T15:47:44.837Z,27.13
2023-10-05T15:50:19.608Z,19.58
2023-10-05T15:52:48.891Z,18.45
2023-10-05T15:55:16.886Z,16.98
2023-10-05T15:57:45.882Z,15.63
2023-10-05T16:00:13.354Z,19.13
2023-10-05T16:02:40.338Z,17.85
2023-10-05T16:05:13.481Z,18.55
2023-10-05T16:07:40.431Z,17.58
2023-10-05T16:10:07.908Z,19.30
2023-10-05T16:12:34.905Z,17.30
2023-10-05T16:15:01.855Z,20.10
2023-10-05T16:17:28.864Z,19.50
2023-10-05T16:19:56.342Z,23.65
2023-10-05T16:22:23.260Z,21.27
2023-10-05T16:24:50.047Z,20.98
2023-10-05T16:27:17.153Z,21.25
2023-10-05T16:29:43.931Z,22.88
2023-10-05T16:32:11.414Z,28.63
2023-10-05T16:34:38.548Z,28.10
2023-10-05T16:37:06.052Z,33.00
2023-10-05T16:39:32.903Z,24.33
2023-10-05T16:42:02.835Z,23.35
2023-10-05T16:44:31.061Z,21.92
2023-10-05T16:46:58.753Z,27.77
2023-10-05T16:49:26.228Z,25.63
2023-10-05T16:51:54.799Z,23.25
2023-10-05T16:54:22.126Z,21.50
2023-10-05T16:56:54.763Z,23.02
2023-10-05T16:59:22.017Z,23.23
2023-10-05T17:01:48.919Z,22.38
2023-10-05T17:04:16.030Z,19.90
2023-10-05T17:06:42.958Z,18.73
2023-10-05T17:09:11.522Z,19.45
2023-10-05T17:11:39.699Z,20.43
2023-10-05T17:14:06.577Z,40.55
2023-10-05T17:16:33.445Z,27.02
2023-10-05T17:19:01.129Z,24.17
2023-10-05T17:21:29.574Z,20.17
2023-10-05T17:24:06.412Z,21.80
2023-10-05T17:26:41.611Z,18.17
2023-10-05T17:29:09.047Z,20.52
2023-10-05T17:31:36.937Z,19.38
2023-10-05T17:34:04.128Z,19.10
2023-10-05T17:36:31.026Z,21.63
2023-10-05T17:38:57.926Z,17.90
2023-10-05T17:41:24.907Z,18.65
2023-10-05T17:43:51.975Z,19.67
2023-10-05T17:46:18.961Z,21.25
2023-10-05T17:48:46.055Z,18.73
2023-10-05T17:51:13.058Z,18.73
2023-10-05T17:53:39.889Z,23.27
2023-10-05T17:56:06.795Z,20.50
2023-10-05T17:58:33.725Z,20.05
2023-10-05T18:01:00.668Z,25.30
2023-10-05T18:03:27.816Z,24.00
2023-10-05T18:05:55.385Z,24.58
2023-10-05T18:08:23.118Z,24.52
2023-10-05T18:10:50.305Z,25.33
2023-10-05T18:13:17.869Z,25.60
2023-10-05T18:15:44.869Z,23.50
2023-10-05T18:18:11.877Z,18.35
2023-10-05T18:20:38.863Z,23.02
2023-10-05T18:23:05.669Z,24.67
2023-10-05T18:25:34.067Z,19.63
2023-10-05T18:28:01.189Z,24.15
2023-10-05T18:30:29.447Z,22.45
2023-10-05T18:32:57.009Z,22.90
2023-10-05T18:35:24.036Z,18.63
2023-10-05T18:37:51.111Z,18.47
2023-10-05T18:40:18.182Z,22.00
2023-10-05T18:42:45.210Z,21.45
2023-10-05T18:45:16.181Z,19.10
2023-10-05T18:47:44.253Z,26.65
2023-10-05T18:50:13.183Z,22.47
2023-10-05T18:52:40.822Z,16.80
2023-10-05T18:55:08.082Z,21.67
2023-10-05T18:57:37.707Z,20.20
2023-10-05T19:00:04.839Z,22.35
2023-10-05T19:02:32.045Z,18.40
2023-10-05T19:04:59.271Z,18.17
2023-10-05T19:07:29.344Z,17.33
2023-10-05T19:09:56.606Z,30.20
2023-10-05T19:12:23.572Z,20.65
2023-10-05T19:14:51.610Z,17.03
2023-10-05T19:17:18.458Z,20.65
2023-10-05T19:19:45.362Z,22.23
2023-10-05T19:22:12.186Z,20.05
2023-10-05T19:24:39.344Z,20.08
2023-10-05T19:27:07.855Z,17.27
2023-10-05T19:29:34.920Z,18.70
2023-10-05T19:32:01.932Z,19.60
2023-10-05T19:34:28.953Z,24.45
2023-10-05T19:36:55.963Z,22.70
2023-10-05T19:39:23.024Z,21.53
2023-10-05T19:41:49.907Z,26.02
2023-10-05T19:44:16.785Z,18.23
2023-10-05T19:46:43.855Z,21.65
2023-10-05T19:49:10.816Z,24.15
2023-10-05T19:51:37.727Z,21.53
2023-10-05T19:54:05.880Z,21.45
2023-10-05T19:56:37.550Z,19.35
2023-10-05T19:59:05.048Z,18.15
2023-10-05T20:01:32.069Z,18.08
2023-10-05T20:03:59.205Z,17.77
2023-10-05T20:06:26.147Z,24.52
2023-10-05T20:08:53.221Z,21.70
2023-10-05T20:11:20.500Z,19.85
2023-10-05T20:13:47.467Z,20.02
2023-10-05T20:16:15.546Z,18.93
2023-10-05T20:18:42.851Z,24.05
2023-10-05T20:21:10.679Z,24.70
2023-10-05T20:23:38.064Z,23.55
2023-10-05T20:26:05.513Z,21.08
2023-10-05T20:28:32.460Z,21.23
2023-10-05T20:30:59.363Z,24.10
2023-10-05T20:33:26.544Z,23.85
2023-10-05T20:36:03.865Z,22.25
2023-10-05T20:38:30.689Z,22.17
2023-10-05T20:41:01.784Z,23.53
2023-10-05T20:43:28.866Z,21.73
2023-10-05T20:45:55.755Z,19.65
2023-10-05T20:48:23.354Z,22.60
2023-10-05T20:50:53.756Z,18.33
2023-10-05T20:53:20.561Z,27.20
2023-10-05T20:55:47.517Z,27.83
2023-10-05T20:58:14.490Z,29.25
2023-10-05T21:00:41.337Z,26.73
2023-10-05T21:03:08.517Z,27.38
2023-10-05T21:05:35.928Z,23.17
2023-10-05T21:08:04.254Z,26.92
2023-10-05T21:10:31.202Z,23.52
2023-10-05T21:12:58.169Z,27.25
2023-10-05T21:15:25.011Z,22.60
2023-10-05T21:17:51.825Z,26.03
2023-10-05T21:20:18.803Z,24.92
2023-10-05T21:22:45.719Z,21.20
2023-10-05T21:25:12.593Z,28.58
2023-10-05T21:27:39.469Z,25.13
2023-10-05T21:30:06.941Z,21.63
2023-10-05T21:32:34.475Z,25.77
2023-10-05T21:35:01.483Z,18.42
2023-10-05T21:37:28.416Z,20.85
2023-10-05T21:39:55.477Z,22.17
2023-10-05T21:42:22.369Z,23.97
2023-10-05T21:44:49.393Z,23.90
2023-10-05T21:47:16.388Z,18.58
2023-10-05T21:49:43.496Z,14.77
2023-10-05T21:52:10.353Z,15.60
2023-10-05T21:54:37.164Z,14.67
2023-10-05T21:57:04.243Z,18.13
2023-10-05T21:59:31.142Z,20.35
2023-10-05T22:01:58.142Z,21.05
2023-10-05T22:04:25.272Z,26.13
2023-10-05T22:06:52.114Z,26.13
2023-10-05T22:09:18.936Z,25.77
2023-10-05T22:11:46.002Z,23.00
2023-10-05T22:14:12.922Z,20.85
2023-10-05T22:16:39.874Z,20.70
2023-10-05T22:19:07.124Z,22.93
2023-10-05T22:21:34.028Z,20.55
2023-10-05T22:24:00.910Z,23.27
2023-10-05T22:26:27.886Z,21.73
2023-10-05T22:28:54.712Z,20.50
2023-10-05T22:31:21.676Z,23.07
2023-10-05T22:33:48.941Z,20.75
2023-10-05T22:36:15.844Z,20.02
2023-10-05T22:38:44.803Z,17.00
2023-10-05T22:41:12.620Z,16.00
2023-10-05T22:43:39.661Z,15.13
2023-10-05T22:46:17.361Z,18.50
2023-10-05T22:48:45.170Z,19.63
2023-10-05T22:51:18.934Z,21.55
2023-10-05T22:53:48.042Z,22.17
2023-10-05T22:56:14.860Z,23.07
2023-10-05T22:58:41.746Z,24.13
2023-10-05T23:01:08.738Z,22.85
2023-10-05T23:03:35.666Z,19.40
2023-10-05T23:06:02.855Z,21.50
2023-10-05T23:08:29.766Z,24.13
2023-10-05T23:10:56.644Z,23.30
2023-10-05T23:13:23.685Z,22.13
2023-10-05T23:15:50.990Z,19.80
2023-10-05T23:18:17.966Z,21.02
2023-10-05T23:20:45.935Z,21.57
2023-10-05T23:23:12.821Z,19.75
2023-10-05T23:25:39.769Z,24.80
2023-10-05T23:28:06.916Z,22.13
2023-10-05T23:30:33.748Z,19.55
2023-10-05T23:33:00.926Z,22.17
2023-10-05T23:35:28.716Z,18.60
2023-10-05T23:37:55.578Z,23.85
2023-10-05T23:40:22.766Z,19.23
2023-10-05T23:42:49.815Z,20.95
2023-10-05T23:45:16.982Z,20.93
2023-10-05T23:47:44.689Z,22.10
2023-10-05T23:50:11.871Z,22.50
2023-10-05T23:52:39.417Z,20.05
2023-10-05T23:55:07.151Z,21.67
2023-10-05T23:57:34.069Z,17.93
